Time;durP1;ratioP1;P1;durP2;ratioP2;P2;SDS_P1;SDS_P2;PMS_P1;PMS_P2;Temp;Humidity;BMP_temperature;BMP_pressure;BME280_temperature;BME280_humidity;BME280_pressure;Samples;Min_cycle;Max_cycle;Signal;HPM_P1;HPM_P2
2024/02/04 00:01:57;;;;;;;2.50;2.40;;;8.90;99.90;;;;;;5027608;28;20871;-61
2024/02/04 00:04:25;;;;;;;1.87;1.77;;;8.90;99.90;;;;;;5027818;28;20477;-61
2024/02/04 00:06:52;;;;;;;2.13;1.67;;;8.90;99.90;;;;;;5028210;28;20477;-61
2024/02/04 00:09:19;;;;;;;1.40;1.30;;;8.90;99.90;;;;;;5027604;28;20537;-61
2024/02/04 00:11:46;;;;;;;2.30;2.10;;;8.90;99.90;;;;;;5027824;28;20497;-61
2024/02/04 00:14:13;;;;;;;2.33;2.23;;;8.90;99.90;;;;;;5027545;28;21030;-61
2024/02/04 00:16:40;;;;;;;2.20;2.10;;;8.90;99.90;;;;;;5027769;28;20481;-61
2024/02/04 00:19:08;;;;;;;1.67;1.57;;;8.90;99.90;;;;;;5027757;28;20557;-59
2024/02/04 00:21:37;;;;;;;1.20;1.20;;;8.90;99.90;;;;;;5027172;28;20492;-61
2024/02/04 00:24:04;;;;;;;1.47;1.40;;;8.90;99.90;;;;;;5027420;28;20450;-59
2024/02/04 00:26:30;;;;;;;1.33;1.33;;;8.90;99.90;;;;;;5026471;28;20512;-61
2024/02/04 00:28:58;;;;;;;1.83;1.63;;;8.90;99.90;;;;;;5027603;28;20293;-61
2024/02/04 00:31:24;;;;;;;1.53;1.43;;;8.90;99.90;;;;;;5026947;28;20940;-61
2024/02/04 00:33:51;;;;;;;3.33;1.83;;;8.90;99.90;;;;;;5027426;28;20453;-61
2024/02/04 00:36:19;;;;;;;1.60;1.50;;;8.90;99.90;;;;;;5027508;28;20479;-61
2024/02/04 00:38:47;;;;;;;1.70;1.60;;;9.00;99.90;;;;;;5027787;28;20454;-62
2024/02/04 00:41:14;;;;;;;2.00;1.90;;;9.00;99.90;;;;;;5028000;28;20330;-61
2024/02/04 00:43:41;;;;;;;2.93;2.10;;;9.00;99.90;;;;;;5033844;28;20489;-60
2024/02/04 00:46:10;;;;;;;2.43;2.23;;;9.00;99.90;;;;;;5033937;28;20465;-61
2024/02/04 00:48:35;;;;;;;2.13;2.03;;;9.00;99.90;;;;;;5033937;28;20484;-61
2024/02/04 00:51:02;;;;;;;2.40;2.20;;;9.10;99.90;;;;;;5027573;28;20474;-61
2024/02/04 00:53:33;;;;;;;1.70;1.60;;;9.10;99.90;;;;;;5031263;28;20457;-61
2024/02/04 00:56:02;;;;;;;3.27;2.37;;;9.10;99.90;;;;;;5032211;28;20531;-61
2024/02/04 00:58:28;;;;;;;2.60;2.40;;;9.10;99.90;;;;;;5025354;28;20528;-61
2024/02/04 01:00:55;;;;;;;2.20;2.10;;;9.10;99.90;;;;;;5033285;28;20517;-61
2024/02/04 01:03:22;;;;;;;2.20;2.10;;;9.10;99.90;;;;;;5033542;28;20458;-61
2024/02/04 01:05:49;;;;;;;2.30;2.10;;;9.10;99.90;;;;;;5033733;28;21046;-59
2024/02/04 01:08:16;;;;;;;2.33;2.17;;;9.10;99.90;;;;;;5033842;28;20213;-61
2024/02/04 01:10:43;;;;;;;4.17;3.20;;;9.10;99.90;;;;;;5033628;28;20547;-61
2024/02/04 01:13:11;;;;;;;2.60;2.40;;;9.10;99.90;;;;;;5033706;28;20536;-61
2024/02/04 01:15:38;;;;;;;2.40;2.30;;;9.10;99.90;;;;;;5033846;28;20479;-61
2024/02/04 01:18:05;;;;;;;4.93;2.80;;;9.10;99.90;;;;;;5033552;28;20449;-59
2024/02/04 01:20:31;;;;;;;3.27;3.03;;;9.10;99.90;;;;;;5033995;28;20461;-61
2024/02/04 01:22:58;;;;;;;2.53;2.33;;;9.10;99.90;;;;;;5033052;28;20982;-61
2024/02/04 01:25:25;;;;;;;3.57;3.37;;;9.10;99.90;;;;;;5033483;28;20568;-60
2024/02/04 01:27:52;;;;;;;3.22;3.03;;;9.20;99.90;;;;;;5033900;28;20488;-61
2024/02/04 01:30:20;;;;;;;2.40;2.30;;;9.10;99.90;;;;;;5033227;28;20213;-61
2024/02/04 01:32:47;;;;;;;3.35;3.03;;;9.10;99.90;;;;;;5033153;28;20207;-61
2024/02/04 01:35:15;;;;;;;3.10;3.00;;;9.10;99.90;;;;;;5033553;28;20222;-61
2024/02/04 01:37:43;;;;;;;3.50;3.30;;;9.20;99.90;;;;;;5033780;28;20461;-61
2024/02/04 01:40:11;;;;;;;3.90;3.60;;;9.10;99.90;;;;;;5033810;28;20211;-61
2024/02/04 01:42:37;;;;;;;3.67;3.37;;;9.10;99.90;;;;;;5033004;28;20856;-61
2024/02/04 01:45:05;;;;;;;4.17;3.20;;;9.20;99.90;;;;;;5033410;28;20469;-60
2024/02/04 01:47:34;;;;;;;3.33;3.13;;;9.20;99.90;;;;;;5033746;28;20460;-61
2024/02/04 01:50:01;;;;;;;4.50;4.20;;;9.20;99.90;;;;;;5026354;28;20446;-60
2024/02/04 01:52:28;;;;;;;3.10;2.90;;;9.20;99.90;;;;;;5013886;28;20459;-61
2024/02/04 01:54:55;;;;;;;3.53;3.20;;;9.20;99.90;;;;;;5014686;28;20482;-61
2024/02/04 01:57:23;;;;;;;3.47;3.27;;;9.20;99.90;;;;;;5016437;28;20453;-61
2024/02/04 01:59:51;;;;;;;3.73;3.43;;;9.20;99.90;;;;;;5027579;28;20449;-61
2024/02/04 02:02:18;;;;;;;3.20;3.00;;;9.10;99.90;;;;;;5028736;28;20535;-61
2024/02/04 02:04:47;;;;;;;3.33;3.13;;;9.20;99.90;;;;;;5011428;28;20546;-60
2024/02/04 02:07:16;;;;;;;2.73;2.53;;;9.20;99.90;;;;;;5011374;28;20453;-61
2024/02/04 02:09:43;;;;;;;2.90;2.67;;;9.20;99.90;;;;;;5011149;28;20843;-61
2024/02/04 02:12:14;;;;;;;2.60;2.40;;;9.20;99.90;;;;;;5023440;28;20446;-61
2024/02/04 02:14:44;;;;;;;3.37;3.17;;;9.20;99.90;;;;;;5031068;28;20879;-61
2024/02/04 02:17:17;;;;;;;2.80;2.60;;;9.20;99.90;;;;;;5030266;28;20446;-61
2024/02/04 02:19:52;;;;;;;2.83;2.73;;;9.20;99.90;;;;;;5029208;28;20896;-61
2024/02/04 02:22:27;;;;;;;2.88;2.67;;;9.20;99.90;;;;;;5030243;28;20488;-61
2024/02/04 02:24:58;;;;;;;2.57;2.40;;;9.20;99.90;;;;;;5030475;28;20784;-61
2024/02/04 02:27:25;;;;;;;2.83;2.73;;;9.20;99.90;;;;;;5030408;28;20445;-60
2024/02/04 02:29:52;;;;;;;2.83;2.13;;;9.20;99.90;;;;;;5030577;28;20450;-61
2024/02/04 02:32:20;;;;;;;2.53;2.33;;;9.30;99.90;;;;;;5030107;28;20445;-61
2024/02/04 02:34:47;;;;;;;2.57;2.40;;;9.30;99.90;;;;;;5030442;28;20460;-61
2024/02/04 02:37:23;;;;;;;2.60;2.50;;;9.30;99.90;;;;;;5030491;28;21185;-61
2024/02/04 02:39:57;;;;;;;2.73;2.63;;;9.30;99.90;;;;;;5030490;28;20445;-61
2024/02/04 02:42:26;;;;;;;2.70;2.50;;;9.30;99.90;;;;;;5030292;28;20488;-61
2024/02/04 02:44:54;;;;;;;2.40;2.20;;;9.30;99.90;;;;;;5030261;28;20532;-61
2024/02/04 02:47:23;;;;;;;2.90;2.70;;;9.30;99.90;;;;;;5030228;28;20457;-61
2024/02/04 02:49:52;;;;;;;2.53;2.37;;;9.30;99.90;;;;;;5029978;28;20460;-61
2024/02/04 02:52:19;;;;;;;1.90;1.80;;;9.30;99.90;;;;;;5029920;28;20924;-61
2024/02/04 02:54:46;;;;;;;2.93;1.70;;;9.30;99.90;;;;;;5030136;28;20461;-61
2024/02/04 02:57:14;;;;;;;2.53;2.37;;;9.30;99.90;;;;;;5030305;28;20453;-61
2024/02/04 02:59:41;;;;;;;2.23;1.90;;;9.30;99.90;;;;;;5029922;28;20982;-60
2024/02/04 03:02:08;;;;;;;2.70;2.50;;;9.30;99.90;;;;;;5029388;28;20491;-61
2024/02/04 03:04:35;;;;;;;1.80;1.70;;;9.30;99.90;;;;;;5029693;28;20464;-61
2024/02/04 03:07:02;;;;;;;1.90;1.80;;;9.30;99.90;;;;;;5030167;28;20464;-61
2024/02/04 03:09:29;;;;;;;1.93;1.83;;;9.30;99.90;;;;;;5029870;28;21062;-61
2024/02/04 03:11:55;;;;;;;1.90;1.80;;;9.30;99.90;;;;;;5029736;28;20452;-61
2024/02/04 03:14:23;;;;;;;2.00;1.90;;;9.30;99.90;;;;;;5030045;28;20448;-62
2024/02/04 03:16:50;;;;;;;6.13;2.60;;;9.30;99.90;;;;;;5023135;28;20470;-61
2024/02/04 03:19:17;;;;;;;1.70;1.60;;;9.30;99.90;;;;;;5009864;28;20443;-61
2024/02/04 03:21:44;;;;;;;2.03;1.93;;;9.30;99.90;;;;;;5016761;28;20487;-61
2024/02/04 03:24:11;;;;;;;1.73;1.63;;;9.30;99.90;;;;;;5026367;28;20868;-61
2024/02/04 03:26:37;;;;;;;1.77;1.67;;;9.30;99.90;;;;;;5057064;22;20496;-63
2024/02/04 03:29:05;;;;;;;3.20;2.30;;;9.30;99.90;;;;;;5037965;28;20913;-63
2024/02/04 03:31:33;;;;;;;2.13;2.03;;;9.30;99.90;;;;;;5039277;28;20457;-63
2024/02/04 03:34:00;;;;;;;3.33;2.13;;;9.30;99.90;;;;;;5033264;28;20477;-63
2024/02/04 03:36:28;;;;;;;2.20;2.10;;;9.30;99.90;;;;;;5040436;28;20465;-63
2024/02/04 03:38:55;;;;;;;2.30;2.10;;;9.40;99.90;;;;;;5041019;28;20455;-63
2024/02/04 03:41:21;;;;;;;2.20;2.10;;;9.30;99.90;;;;;;5048975;28;20448;-63
2024/02/04 03:43:48;;;;;;;1.57;1.47;;;9.30;99.90;;;;;;5049637;28;20475;-63
2024/02/04 03:46:15;;;;;;;2.40;2.20;;;9.30;99.90;;;;;;5049257;28;20477;-63
2024/02/04 03:48:44;;;;;;;2.60;2.30;;;9.30;99.90;;;;;;5049365;28;20897;-63
2024/02/04 03:51:17;;;;;;;2.27;2.17;;;9.30;99.90;;;;;;5048802;28;20452;-63
2024/02/04 03:53:43;;;;;;;2.23;2.10;;;9.30;99.90;;;;;;5049164;28;20463;-63
2024/02/04 03:56:09;;;;;;;2.57;2.17;;;9.30;99.90;;;;;;5048991;28;20499;-63
2024/02/04 03:58:36;;;;;;;2.00;1.90;;;9.30;99.90;;;;;;5048234;28;20445;-63
2024/02/04 04:01:03;;;;;;;1.97;1.60;;;9.30;99.90;;;;;;5036573;28;20496;-63
2024/02/04 04:03:30;;;;;;;1.07;1.03;;;9.30;99.90;;;;;;5015839;28;20495;-63
2024/02/04 04:05:58;;;;;;;1.50;1.40;;;9.40;99.90;;;;;;5025561;28;20492;-64
2024/02/04 04:08:25;;;;;;;1.60;1.50;;;9.30;99.90;;;;;;5028205;28;20449;-63
2024/02/04 04:10:52;;;;;;;1.73;1.63;;;9.30;99.90;;;;;;5027926;28;20449;-62
2024/02/04 04:13:19;;;;;;;6.20;1.80;;;9.30;99.90;;;;;;5018396;28;20208;-63
2024/02/04 04:15:45;;;;;;;1.27;1.27;;;9.30;99.90;;;;;;5018266;28;20515;-63
2024/02/04 04:18:12;;;;;;;2.50;2.23;;;9.30;99.90;;;;;;5027948;28;20456;-63
2024/02/04 04:20:39;;;;;;;1.67;1.57;;;9.20;99.90;;;;;;5028120;28;20460;-63
2024/02/04 04:23:08;;;;;;;1.77;1.70;;;9.20;99.90;;;;;;5020197;28;20979;-63
2024/02/04 04:25:34;;;;;;;2.27;2.17;;;9.20;99.90;;;;;;5033935;28;20473;-63
2024/02/04 04:28:01;;;;;;;2.37;1.73;;;9.20;99.90;;;;;;5042282;28;20445;-63
2024/02/04 04:30:28;;;;;;;1.50;1.50;;;9.20;99.90;;;;;;5048606;28;20822;-63
2024/02/04 04:32:55;;;;;;;1.80;1.70;;;9.10;99.90;;;;;;5047903;28;20440;-63
2024/02/04 04:35:22;;;;;;;2.40;2.20;;;9.10;99.90;;;;;;5048348;28;20951;-63
2024/02/04 04:37:49;;;;;;;1.50;1.40;;;9.10;99.90;;;;;;5048425;28;20445;-63
2024/02/04 04:40:17;;;;;;;2.03;1.93;;;9.10;99.90;;;;;;5048104;28;20947;-63
2024/02/04 04:42:44;;;;;;;2.37;2.13;;;9.00;99.90;;;;;;5047630;28;20494;-63
2024/02/04 04:45:11;;;;;;;2.70;2.50;;;9.00;99.90;;;;;;5048463;28;20539;-63
2024/02/04 04:47:42;;;;;;;2.63;2.43;;;9.00;99.90;;;;;;5048443;28;20463;-63
2024/02/04 04:50:09;;;;;;;2.20;2.10;;;8.90;99.90;;;;;;5045774;28;20540;-61
2024/02/04 04:52:36;;;;;;;2.10;2.00;;;8.90;99.90;;;;;;5048143;28;20445;-63
2024/02/04 04:55:03;;;;;;;3.10;2.87;;;8.80;99.90;;;;;;5048286;28;20978;-62
2024/02/04 04:57:31;;;;;;;2.03;1.93;;;8.80;99.90;;;;;;5048220;28;20472;-61
2024/02/04 04:59:58;;;;;;;2.13;2.00;;;8.80;99.90;;;;;;5048144;28;20455;-62
2024/02/04 05:02:25;;;;;;;2.95;2.80;;;8.70;99.90;;;;;;5047590;28;20488;-62
2024/02/04 05:04:52;;;;;;;2.10;2.00;;;8.70;99.90;;;;;;5048467;28;20216;-62
2024/02/04 05:07:19;;;;;;;2.30;2.17;;;8.70;99.90;;;;;;5048277;28;20480;-62
2024/02/04 05:09:46;;;;;;;2.92;2.63;;;8.70;99.90;;;;;;5047913;28;20707;-60
2024/02/04 05:12:13;;;;;;;3.00;2.80;;;8.60;99.90;;;;;;5047591;28;20214;-61
2024/02/04 05:14:41;;;;;;;2.72;2.53;;;8.60;99.90;;;;;;5048127;28;20463;-62
2024/02/04 05:17:09;;;;;;;3.22;2.92;;;8.60;99.90;;;;;;5047999;28;20226;-62
2024/02/04 05:19:36;;;;;;;2.80;2.60;;;8.50;99.90;;;;;;5048269;28;20328;-61
2024/02/04 05:22:03;;;;;;;2.77;2.53;;;8.50;99.90;;;;;;5047826;28;20453;-62
2024/02/04 05:24:30;;;;;;;2.40;2.17;;;8.50;99.90;;;;;;5048301;28;20460;-62
2024/02/04 05:26:57;;;;;;;2.20;2.10;;;8.40;99.90;;;;;;5047801;28;20491;-62
2024/02/04 05:29:24;;;;;;;2.35;2.15;;;8.40;99.90;;;;;;5049785;28;20232;-62
2024/02/04 05:31:52;;;;;;;2.20;1.93;;;8.40;99.90;;;;;;5051247;28;20209;-62
2024/02/04 05:34:19;;;;;;;2.30;2.10;;;8.40;99.90;;;;;;5051854;28;20531;-62
2024/02/04 05:36:46;;;;;;;2.77;2.43;;;8.40;99.90;;;;;;5051532;28;20736;-61
2024/02/04 05:39:13;;;;;;;2.00;1.90;;;8.30;99.90;;;;;;5051570;28;20449;-62
2024/02/04 05:41:40;;;;;;;2.10;2.00;;;8.30;99.90;;;;;;5051046;28;20221;-61
2024/02/04 05:44:08;;;;;;;1.60;1.50;;;8.30;99.90;;;;;;5051416;28;20230;-62
2024/02/04 05:46:35;;;;;;;2.63;2.40;;;8.30;99.90;;;;;;5051520;28;20765;-61
2024/02/04 05:49:04;;;;;;;2.93;2.07;;;8.30;99.90;;;;;;5051263;28;20210;-61
2024/02/04 05:51:33;;;;;;;5.20;2.57;;;8.30;99.90;;;;;;5051069;28;20461;-62
2024/02/04 05:53:59;;;;;;;2.22;2.05;;;8.30;99.90;;;;;;5051559;28;20447;-62
2024/02/04 05:56:26;;;;;;;1.43;1.33;;;8.30;99.90;;;;;;5051459;28;20340;-62
2024/02/04 05:58:53;;;;;;;1.67;1.58;;;8.30;99.90;;;;;;5051069;28;20460;-62
2024/02/04 06:01:20;;;;;;;2.55;2.35;;;8.30;99.90;;;;;;5050871;28;20214;-62
2024/02/04 06:03:47;;;;;;;2.35;2.15;;;8.30;99.90;;;;;;5051282;28;20237;-61
2024/02/04 06:06:19;;;;;;;2.05;1.95;;;8.30;99.90;;;;;;5050949;28;20230;-62
2024/02/04 06:08:46;;;;;;;2.35;2.25;;;8.20;99.90;;;;;;5050925;28;20306;-62
2024/02/04 06:11:13;;;;;;;2.20;2.10;;;8.20;99.90;;;;;;5050414;28;20206;-62
2024/02/04 06:13:41;;;;;;;3.33;2.30;;;8.20;99.90;;;;;;5051140;28;20861;-61
2024/02/04 06:16:09;;;;;;;2.10;1.90;;;8.20;99.90;;;;;;5050741;28;20720;-62
2024/02/04 06:18:37;;;;;;;1.90;1.58;;;8.20;99.90;;;;;;5050803;28;20210;-61
2024/02/04 06:21:04;;;;;;;2.25;2.15;;;8.20;99.90;;;;;;5050415;28;20238;-62
2024/02/04 06:23:33;;;;;;;1.92;1.83;;;8.20;99.90;;;;;;5050826;28;20230;-62
2024/02/04 06:26:00;;;;;;;2.53;2.40;;;8.20;99.90;;;;;;5050699;28;20249;-62
2024/02/04 06:28:27;;;;;;;3.17;2.95;;;8.20;99.90;;;;;;5050892;28;20216;-62
2024/02/04 06:30:54;;;;;;;2.28;2.10;;;8.20;99.90;;;;;;5050321;28;20237;-61
2024/02/04 06:33:22;;;;;;;3.05;2.35;;;8.20;99.90;;;;;;5050756;28;20209;-62
2024/02/04 06:35:49;;;;;;;2.22;2.13;;;8.20;99.90;;;;;;5050476;28;20237;-62
2024/02/04 06:38:17;;;;;;;2.60;2.40;;;8.20;99.90;;;;;;5050266;28;20688;-62
2024/02/04 06:40:45;;;;;;;2.83;2.53;;;8.20;99.90;;;;;;5049835;28;20900;-61
2024/02/04 06:43:12;;;;;;;2.45;2.28;;;8.20;99.90;;;;;;5050291;28;20495;-62
2024/02/04 06:45:39;;;;;;;2.38;2.17;;;8.20;99.90;;;;;;5050349;28;20321;-62
2024/02/04 06:48:07;;;;;;;3.20;2.67;;;8.20;99.90;;;;;;5050160;28;20213;-62
2024/02/04 06:50:34;;;;;;;3.50;3.30;;;8.20;99.90;;;;;;5050445;28;20210;-62
2024/02/04 06:53:00;;;;;;;3.08;2.88;;;8.20;99.90;;;;;;5050175;28;21012;-61
2024/02/04 06:55:27;;;;;;;2.85;2.65;;;8.20;99.90;;;;;;5050307;28;20214;-62
2024/02/04 06:57:55;;;;;;;3.22;2.92;;;8.20;99.90;;;;;;5050233;28;20210;-62
2024/02/04 07:00:22;;;;;;;3.60;2.93;;;8.20;99.90;;;;;;5050331;28;20214;-62
2024/02/04 07:02:49;;;;;;;2.92;2.72;;;8.20;99.90;;;;;;5049491;28;20492;-61
2024/02/04 07:05:16;;;;;;;3.28;3.08;;;8.20;99.90;;;;;;5050013;28;20214;-60
2024/02/04 07:07:43;;;;;;;3.17;2.97;;;8.30;99.90;;;;;;5049870;28;20217;-62
2024/02/04 07:10:10;;;;;;;3.05;2.75;;;8.30;99.90;;;;;;5049806;28;20216;-62
2024/02/04 07:12:37;;;;;;;2.95;2.75;;;8.30;99.90;;;;;;5049420;28;20216;-62
2024/02/04 07:15:06;;;;;;;2.88;2.40;;;8.30;99.90;;;;;;5049855;28;20657;-61
2024/02/04 07:17:33;;;;;;;4.32;2.45;;;8.30;99.90;;;;;;5049700;28;20237;-62
2024/02/04 07:19:59;;;;;;;3.25;3.05;;;8.30;99.90;;;;;;5049453;28;20216;-62
2024/02/04 07:22:26;;;;;;;2.80;2.60;;;8.30;99.90;;;;;;5049383;28;20228;-61
2024/02/04 07:24:53;;;;;;;2.20;2.10;;;8.30;99.90;;;;;;5049712;28;20236;-62
2024/02/04 07:27:20;;;;;;;2.55;2.35;;;8.30;99.90;;;;;;5049168;28;21033;-62
2024/02/04 07:29:47;;;;;;;2.20;2.10;;;8.30;99.90;;;;;;5049445;28;20220;-60
2024/02/04 07:32:16;;;;;;;2.60;2.50;;;8.30;99.90;;;;;;5049208;28;20685;-61
2024/02/04 07:34:43;;;;;;;2.20;2.00;;;8.40;99.90;;;;;;5049546;28;20208;-62
2024/02/04 07:37:10;;;;;;;2.10;2.00;;;8.40;99.90;;;;;;5049587;28;20646;-62
2024/02/04 07:39:37;;;;;;;2.00;1.90;;;8.40;99.90;;;;;;5049304;28;20216;-62
2024/02/04 07:42:04;;;;;;;1.77;1.67;;;8.40;99.90;;;;;;5048852;28;20210;-62
2024/02/04 07:44:30;;;;;;;2.97;2.42;;;8.40;99.90;;;;;;5049056;28;20495;-61
2024/02/04 07:46:57;;;;;;;3.13;2.92;;;8.40;99.90;;;;;;5049120;28;20233;-61
2024/02/04 07:49:25;;;;;;;2.20;2.00;;;8.40;99.90;;;;;;5048912;28;20214;-61
2024/02/04 07:51:52;;;;;;;2.20;2.00;;;8.40;99.90;;;;;;5047992;28;20455;-62
2024/02/04 07:54:19;;;;;;;2.50;2.30;;;8.40;99.90;;;;;;5049069;28;20210;-62
2024/02/04 07:56:46;;;;;;;1.90;1.80;;;8.40;99.90;;;;;;5048995;28;20238;-62
2024/02/04 07:59:13;;;;;;;2.20;2.10;;;8.50;99.90;;;;;;5048846;28;20214;-61
2024/02/04 08:01:40;;;;;;;2.70;2.20;;;8.40;99.90;;;;;;5048553;28;20206;-61
2024/02/04 08:04:08;;;;;;;3.00;2.80;;;8.50;99.90;;;;;;5049355;28;20484;-62
2024/02/04 08:06:37;;;;;;;1.95;1.85;;;8.50;99.90;;;;;;5048819;28;20503;-61
2024/02/04 08:09:04;;;;;;;1.70;1.60;;;8.40;99.90;;;;;;5048760;28;20270;-62
2024/02/04 08:11:31;;;;;;;1.67;1.58;;;8.50;99.90;;;;;;5048356;28;20583;-62
2024/02/04 08:13:58;;;;;;;2.55;2.45;;;8.40;99.90;;;;;;5048776;28;20206;-61
2024/02/04 08:16:24;;;;;;;1.80;1.70;;;8.40;99.90;;;;;;5048886;28;20605;-62
2024/02/04 08:18:51;;;;;;;2.23;2.03;;;8.40;99.90;;;;;;5048594;28;21120;-62
2024/02/04 08:21:18;;;;;;;2.55;2.35;;;8.40;99.90;;;;;;5048085;28;20451;-62
2024/02/04 08:23:46;;;;;;;2.27;2.13;;;8.50;99.90;;;;;;5048620;28;20226;-62
2024/02/04 08:26:13;;;;;;;1.95;1.83;;;8.50;99.90;;;;;;5048479;28;20480;-62
2024/02/04 08:28:40;;;;;;;2.67;2.50;;;8.50;99.90;;;;;;5048430;28;20213;-62
2024/02/04 08:31:07;;;;;;;2.20;2.00;;;8.50;99.90;;;;;;5033320;28;20208;-63
2024/02/04 08:33:34;;;;;;;2.05;1.85;;;8.50;99.90;;;;;;5016273;28;20298;-62
2024/02/04 08:36:01;;;;;;;2.33;2.13;;;8.60;99.90;;;;;;5013991;28;20234;-62
2024/02/04 08:38:28;;;;;;;2.13;1.92;;;8.60;99.90;;;;;;5008640;28;20545;-62
2024/02/04 08:40:56;;;;;;;1.90;1.80;;;8.60;99.90;;;;;;5008280;28;20243;-62
2024/02/04 08:43:22;;;;;;;2.13;2.00;;;8.60;99.90;;;;;;5032861;28;20240;-62
2024/02/04 08:45:49;;;;;;;2.40;2.20;;;8.60;99.90;;;;;;5037507;28;20245;-62
2024/02/04 08:48:16;;;;;;;2.50;2.30;;;8.60;99.90;;;;;;5021608;28;20991;-62
2024/02/04 08:50:43;;;;;;;1.95;1.80;;;8.60;99.90;;;;;;5021706;28;20893;-63
2024/02/04 08:53:10;;;;;;;2.03;1.87;;;8.60;99.90;;;;;;5026568;28;20644;-62
2024/02/04 08:55:37;;;;;;;2.55;2.45;;;8.70;99.90;;;;;;5019241;28;20467;-63
2024/02/04 08:58:05;;;;;;;2.53;2.33;;;8.70;99.90;;;;;;5012324;28;20671;-63
2024/02/04 09:00:32;;;;;;;1.42;1.40;;;8.70;99.90;;;;;;5020656;28;20472;-63
2024/02/04 09:02:58;;;;;;;2.90;2.70;;;8.70;99.90;;;;;;5020036;28;20206;-63
2024/02/04 09:05:25;;;;;;;1.90;1.80;;;8.70;99.90;;;;;;5026415;28;20309;-62
2024/02/04 09:07:55;;;;;;;1.70;1.60;;;8.70;99.90;;;;;;5032158;28;20294;-63
2024/02/04 09:10:21;;;;;;;1.80;1.70;;;8.80;99.90;;;;;;5030336;28;20457;-63
2024/02/04 09:12:48;;;;;;;1.60;1.60;;;8.80;99.90;;;;;;5027472;28;20457;-61
2024/02/04 09:15:17;;;;;;;2.63;1.60;;;8.90;99.90;;;;;;5029859;28;20948;-63
2024/02/04 09:17:43;;;;;;;1.90;1.80;;;8.90;99.90;;;;;;5019032;28;20853;-63
2024/02/04 09:20:11;;;;;;;1.80;1.70;;;8.90;99.90;;;;;;5017009;28;20570;-62
2024/02/04 09:22:39;;;;;;;1.60;1.50;;;8.90;99.90;;;;;;5017060;28;20490;-62
2024/02/04 09:25:07;;;;;;;1.57;1.47;;;8.90;99.90;;;;;;5021110;28;20222;-61
2024/02/04 09:27:34;;;;;;;1.87;1.77;;;8.90;99.90;;;;;;5058729;22;21023;-60
2024/02/04 09:30:01;;;;;;;2.27;1.60;;;8.90;99.90;;;;;;5041170;28;20452;-58
2024/02/04 09:32:29;;;;;;;1.60;1.53;;;8.90;99.90;;;;;;5040158;28;20456;-59
2024/02/04 09:34:56;;;;;;;1.97;1.87;;;8.90;99.90;;;;;;5035087;28;20441;-58
2024/02/04 09:37:23;;;;;;;1.75;1.65;;;8.90;99.90;;;;;;5040432;28;20476;-59
2024/02/04 09:39:49;;;;;;;0.90;0.90;;;8.90;99.90;;;;;;5035512;28;20298;-60
2024/02/04 09:42:21;;;;;;;1.80;1.70;;;8.90;99.90;;;;;;5030672;28;20460;-58
2024/02/04 09:44:49;;;;;;;1.87;1.70;;;8.90;99.90;;;;;;5035894;28;20484;-58
2024/02/04 09:47:16;;;;;;;1.37;1.37;;;9.00;99.90;;;;;;5030647;28;20552;-58
2024/02/04 09:49:44;;;;;;;2.00;1.60;;;9.00;99.90;;;;;;5031075;28;20455;-59
2024/02/04 09:52:14;;;;;;;1.30;1.20;;;9.00;99.90;;;;;;5038888;28;20452;-60
2024/02/04 09:54:45;;;;;;;0.93;0.93;;;9.10;99.90;;;;;;5029036;28;20442;-60
2024/02/04 09:57:13;;;;;;;1.20;1.20;;;9.10;99.90;;;;;;5029081;28;20559;-56
2024/02/04 09:59:40;;;;;;;0.77;0.77;;;9.10;99.90;;;;;;5030202;28;20453;-59
2024/02/04 10:02:09;;;;;;;1.20;1.10;;;9.10;99.90;;;;;;5029106;28;20456;-59
2024/02/04 10:04:35;;;;;;;1.37;1.27;;;9.10;99.90;;;;;;5030826;28;20876;-59
2024/02/04 10:07:04;;;;;;;3.20;1.43;;;9.10;99.90;;;;;;5030031;28;20482;-59
2024/02/04 10:09:31;;;;;;;3.43;1.80;;;9.20;99.90;;;;;;5029631;28;20541;-59
2024/02/04 10:11:58;;;;;;;1.47;1.17;;;9.20;99.90;;;;;;5030095;28;20524;-59
2024/02/04 10:14:25;;;;;;;1.53;1.53;;;9.20;99.90;;;;;;5020411;28;20449;-58
2024/02/04 10:16:52;;;;;;;0.40;0.40;;;9.30;99.90;;;;;;5030221;28;20473;-59
2024/02/04 10:19:19;;;;;;;0.70;0.70;;;9.20;99.90;;;;;;5030105;28;20446;-58
2024/02/04 10:21:45;;;;;;;0.53;0.53;;;9.30;99.90;;;;;;5030100;28;20449;-58
2024/02/04 10:24:14;;;;;;;0.70;0.70;;;9.30;99.90;;;;;;5028924;28;20499;-59
2024/02/04 10:26:43;;;;;;;0.70;0.67;;;9.30;99.90;;;;;;5029073;28;20485;-59
2024/02/04 10:29:10;;;;;;;0.67;0.67;;;9.30;99.90;;;;;;5030192;28;20454;-57
2024/02/04 10:31:36;;;;;;;0.60;0.60;;;9.30;99.90;;;;;;5044572;28;20970;-60
2024/02/04 10:34:07;;;;;;;1.53;0.73;;;9.30;99.90;;;;;;5031816;28;20445;-58
2024/02/04 10:36:34;;;;;;;3.83;3.53;;;9.40;99.90;;;;;;5029393;28;20835;-55
2024/02/04 10:39:01;;;;;;;3.70;2.87;;;9.40;99.90;;;;;;5036557;28;20445;-60
2024/02/04 10:41:32;;;;;;;2.10;1.77;;;9.40;99.90;;;;;;5043391;28;20487;-58
2024/02/04 10:44:01;;;;;;;2.70;2.30;;;9.40;99.90;;;;;;5046482;28;20492;-58
2024/02/04 10:46:31;;;;;;;4.60;4.10;;;9.50;99.90;;;;;;5040775;28;20480;-57
2024/02/04 10:49:01;;;;;;;3.23;3.03;;;9.50;99.90;;;;;;5038593;28;20478;-58
2024/02/04 10:51:28;;;;;;;0.60;0.60;;;9.50;99.90;;;;;;5031164;28;20458;-58
2024/02/04 10:53:57;;;;;;;1.30;1.03;;;9.50;99.90;;;;;;5038357;28;20480;-60
2024/02/04 10:56:30;;;;;;;1.10;1.10;;;9.50;99.90;;;;;;5029025;28;20493;-59
2024/02/04 10:59:00;;;;;;;1.23;0.90;;;9.50;99.90;;;;;;5040421;28;20896;-58
2024/02/04 11:01:27;;;;;;;1.70;1.60;;;9.60;99.90;;;;;;5035505;28;20458;-58
2024/02/04 11:03:55;;;;;;;0.70;0.70;;;9.60;99.90;;;;;;5023404;28;21206;-58
2024/02/04 11:06:23;;;;;;;1.23;1.00;;;9.60;99.90;;;;;;5024577;28;20484;-59
2024/02/04 11:08:51;;;;;;;2.10;1.90;;;9.60;99.90;;;;;;5037124;28;20453;-58
2024/02/04 11:11:19;;;;;;;1.13;1.07;;;9.60;99.90;;;;;;5030428;28;20520;-59
2024/02/04 11:13:49;;;;;;;1.10;1.00;;;9.70;99.90;;;;;;5027543;28;20458;-59
2024/02/04 11:16:28;;;;;;;1.10;1.00;;;9.70;99.90;;;;;;5022964;28;20474;-59
2024/02/04 11:19:09;;;;;;;1.23;1.20;;;9.70;99.90;;;;;;5030993;28;20539;-59
2024/02/04 11:22:01;;;;;;;2.17;1.70;;;9.80;99.90;;;;;;5027643;28;20460;-60
2024/02/04 11:24:45;;;;;;;0.90;0.90;;;9.80;99.90;;;;;;5026455;28;20961;-59
2024/02/04 11:27:13;;;;;;;0.80;0.80;;;9.80;99.90;;;;;;5026415;28;20488;-59
2024/02/04 11:29:40;;;;;;;1.00;1.00;;;9.80;99.90;;;;;;5027485;28;20450;-59
2024/02/04 11:32:08;;;;;;;1.43;1.33;;;9.80;99.90;;;;;;5027829;28;20461;-60
2024/02/04 11:34:36;;;;;;;1.90;1.30;;;9.80;99.90;;;;;;5027974;28;20458;-59
2024/02/04 11:37:03;;;;;;;1.33;1.23;;;9.80;99.90;;;;;;5025058;28;20592;-58
2024/02/04 11:39:30;;;;;;;2.00;1.90;;;9.90;99.90;;;;;;5028788;28;20453;-59
2024/02/04 11:41:57;;;;;;;1.70;1.60;;;9.90;99.90;;;;;;5029410;28;20476;-60
2024/02/04 11:44:25;;;;;;;1.30;1.10;;;10.00;99.90;;;;;;5028934;28;20874;-59
2024/02/04 11:46:52;;;;;;;0.80;0.80;;;10.00;99.90;;;;;;5025993;28;20478;-59
2024/02/04 11:49:25;;;;;;;0.80;0.80;;;10.00;99.90;;;;;;5028061;28;20494;-60
2024/02/04 11:51:52;;;;;;;0.80;0.80;;;9.90;99.90;;;;;;5018465;28;20489;-60
2024/02/04 11:54:21;;;;;;;1.23;1.20;;;10.00;99.90;;;;;;5027631;28;20446;-59
2024/02/04 11:56:52;;;;;;;1.10;1.10;;;10.00;99.90;;;;;;5030139;28;20476;-59
2024/02/04 11:59:21;;;;;;;2.20;2.10;;;10.00;99.90;;;;;;5027828;28;20448;-59
2024/02/04 12:01:47;;;;;;;2.20;2.00;;;10.00;99.90;;;;;;5024671;28;20454;-58
2024/02/04 12:04:16;;;;;;;1.83;1.70;;;10.00;99.90;;;;;;5027486;28;20535;-58
2024/02/04 12:06:45;;;;;;;1.40;1.30;;;9.90;99.90;;;;;;5034300;28;20801;-61
2024/02/04 12:09:12;;;;;;;1.00;1.00;;;9.90;99.90;;;;;;5027411;28;20540;-59
2024/02/04 12:11:40;;;;;;;0.80;0.80;;;9.90;99.90;;;;;;5027942;28;20457;-59
2024/02/04 12:14:08;;;;;;;1.53;1.40;;;10.00;99.90;;;;;;5027697;28;20540;-59
2024/02/04 12:16:36;;;;;;;1.13;1.13;;;9.90;99.90;;;;;;5026777;28;20553;-59
2024/02/04 12:19:03;;;;;;;1.17;1.00;;;9.90;99.90;;;;;;5027572;28;20456;-60
2024/02/04 12:21:30;;;;;;;1.20;1.10;;;9.90;99.90;;;;;;5026422;28;20479;-61
2024/02/04 12:23:59;;;;;;;0.87;0.87;;;9.90;99.90;;;;;;5027006;28;20456;-58
2024/02/04 12:26:26;;;;;;;0.80;0.70;;;9.90;99.90;;;;;;5026765;28;20504;-57
2024/02/04 12:28:53;;;;;;;0.80;0.80;;;10.00;99.90;;;;;;5026981;28;21251;-58
2024/02/04 12:31:20;;;;;;;0.93;0.50;;;10.00;99.90;;;;;;5031704;28;20468;-60
2024/02/04 12:33:57;;;;;;;1.67;0.90;;;10.10;99.90;;;;;;5028668;28;20549;-60
2024/02/04 12:36:25;;;;;;;0.80;0.80;;;10.10;99.90;;;;;;5030893;28;20551;-60
2024/02/04 12:38:54;;;;;;;1.20;1.10;;;10.10;99.90;;;;;;5029438;28;20628;-60
2024/02/04 12:41:23;;;;;;;1.10;1.00;;;10.10;99.90;;;;;;5032109;28;20450;-60
2024/02/04 12:43:54;;;;;;;0.77;0.77;;;10.10;99.90;;;;;;5037157;28;20450;-59
2024/02/04 12:46:21;;;;;;;1.43;0.97;;;10.10;99.90;;;;;;5026780;28;20576;-59
2024/02/04 12:48:53;;;;;;;1.30;1.20;;;10.10;99.90;;;;;;5036044;28;20450;-61
2024/02/04 12:51:25;;;;;;;2.53;0.80;;;10.10;99.90;;;;;;5027122;28;20457;-59
2024/02/04 12:54:04;;;;;;;1.03;0.73;;;10.10;99.90;;;;;;5027475;28;20445;-59
2024/02/04 12:56:45;;;;;;;0.70;0.70;;;10.20;99.90;;;;;;5027023;28;20564;-59
2024/02/04 12:59:23;;;;;;;0.70;0.70;;;10.20;99.90;;;;;;5040835;28;20449;-57